Time;durP1;ratioP1;P1;durP2;ratioP2;P2;SDS_P1;SDS_P2;PMS_P1;PMS_P2;Temp;Humidity;BMP_temperature;BMP_pressure;BME280_temperature;BME280_humidity;BME280_pressure;Samples;Min_cycle;Max_cycle;Signal;HPM_P1;HPM_P2
2022/01/03 00:01:18;;;;;;;8.93;1.67;;;;;;;14.58;57.02;101064.81;4946175;28;124712;-70
2022/01/03 00:03:46;;;;;;;14.07;2.40;;;;;;;14.59;57.07;101061.16;4946590;28;119286;-70
2022/01/03 00:06:14;;;;;;;11.98;1.92;;;;;;;14.58;57.11;101058.63;4946924;28;119693;-70
2022/01/03 00:08:43;;;;;;;10.60;2.00;;;;;;;14.58;56.92;101063.94;4945204;28;123714;-70
2022/01/03 00:11:16;;;;;;;10.15;1.75;;;;;;;14.57;57.25;101063.06;4944952;28;124626;-69
2022/01/03 00:13:45;;;;;;;12.70;2.53;;;;;;;14.56;57.06;101066.66;4941824;28;119368;-70
2022/01/03 00:16:13;;;;;;;12.10;2.30;;;;;;;14.55;56.84;101069.41;4946708;28;119374;-70
2022/01/03 00:18:41;;;;;;;14.63;2.13;;;;;;;14.53;56.89;101076.66;4928030;28;124377;-70
2022/01/03 00:21:14;;;;;;;13.88;2.10;;;;;;;14.50;56.97;101091.00;4928251;28;122578;-70
2022/01/03 00:23:52;;;;;;;11.70;1.70;;;;;;;14.48;56.98;101084.88;4944602;28;120580;-70
2022/01/03 00:26:24;;;;;;;12.13;2.13;;;;;;;14.48;57.27;101074.22;4926617;28;119277;-70
2022/01/03 00:28:58;;;;;;;12.57;2.10;;;;;;;14.48;57.12;101084.03;4943812;28;123899;-70
2022/01/03 00:31:34;;;;;;;14.10;2.28;;;;;;;14.46;57.21;101065.47;4944695;28;122717;-70
2022/01/03 00:34:04;;;;;;;11.10;2.15;;;;;;;14.47;57.20;101083.19;4939409;28;118527;-70
2022/01/03 00:36:32;;;;;;;13.25;2.30;;;;;;;14.47;57.03;101083.19;4946440;28;118612;-71
2022/01/03 00:39:00;;;;;;;11.95;2.45;;;;;;;14.47;57.08;101077.84;4927671;28;124017;-70
2022/01/03 00:41:27;;;;;;;14.90;1.92;;;;;;;14.47;57.05;101093.84;4946064;28;124127;-70
2022/01/03 00:43:56;;;;;;;9.43;2.10;;;;;;;14.46;57.42;101086.78;4947178;28;118400;-68
2022/01/03 00:46:25;;;;;;;15.30;2.25;;;;;;;14.47;57.07;101083.19;4948356;28;117810;-68
2022/01/03 00:48:54;;;;;;;13.80;1.77;;;;;;;14.46;57.18;101086.78;4949306;28;125529;-68
2022/01/03 00:51:21;;;;;;;9.48;2.10;;;;;;;14.47;57.04;101083.19;4948393;28;123921;-68
2022/01/03 00:53:49;;;;;;;15.18;2.35;;;;;;;14.46;57.13;101081.47;4947944;28;119342;-68
2022/01/03 00:56:27;;;;;;;6.93;2.10;;;;;;;14.44;57.01;101083.34;4949877;28;119098;-69
2022/01/03 00:59:15;;;;;;;12.45;2.30;;;;;;;14.43;56.95;101102.97;4948760;28;123942;-68
2022/01/03 01:01:46;;;;;;;15.52;2.30;;;;;;;14.41;56.87;101088.88;4948739;28;125196;-72
2022/01/03 01:04:16;;;;;;;9.75;2.15;;;;;;;14.39;56.89;101104.06;4947738;28;118540;-69
2022/01/03 01:06:52;;;;;;;12.80;2.25;;;;;;;14.36;56.97;101107.78;4948817;28;118923;-69
2022/01/03 01:09:21;;;;;;;8.85;1.90;;;;;;;14.35;56.98;101100.75;4947803;28;124307;-69
2022/01/03 01:11:54;;;;;;;13.93;2.53;;;;;;;14.35;57.01;101105.19;4948236;28;122681;-69
2022/01/03 01:14:26;;;;;;;10.73;2.22;;;;;;;14.34;57.02;101104.34;4931202;28;119386;-69
2022/01/03 01:16:54;;;;;;;12.55;2.50;;;;;;;14.34;57.04;101103.50;4949281;28;120641;-69
2022/01/03 01:19:24;;;;;;;10.52;2.20;;;;;;;14.35;56.88;101113.19;4949145;28;123794;-69
2022/01/03 01:21:54;;;;;;;12.35;1.98;;;;;;;14.35;56.91;101110.53;4930993;28;123032;-69
2022/01/03 01:24:24;;;;;;;15.30;2.63;;;;;;;14.36;56.99;101106.94;4947527;28;118829;-69
2022/01/03 01:29:39;;;;;;;13.70;2.60;;;;;;;14.39;56.91;101112.06;4944581;28;123727;-69
2022/01/03 01:32:13;;;;;;;12.90;2.53;;;;;;;14.40;56.90;101105.81;4930351;28;123442;-69
2022/01/03 01:34:44;;;;;;;11.25;2.38;;;;;;;14.42;56.72;101122.56;4948226;28;119575;-69
2022/01/03 01:37:18;;;;;;;10.88;2.60;;;;;;;14.43;56.67;101113.63;4931292;28;118623;-69
2022/01/03 01:39:49;;;;;;;9.40;2.30;;;;;;;14.44;56.87;101120.66;4943519;28;124323;-69
2022/01/03 01:42:19;;;;;;;9.40;2.63;;;;;;;14.46;56.64;101121.44;4947007;28;123574;-69
2022/01/03 01:44:51;;;;;;;11.85;2.15;;;;;;;14.48;56.73;101127.53;4945529;28;118456;-69
2022/01/03 01:47:23;;;;;;;11.55;2.20;;;;;;;14.48;56.62;101122.19;4915474;28;118436;-69
2022/01/03 01:49:53;;;;;;;10.77;2.40;;;;;;;14.49;56.63;101126.59;4946433;28;122979;-70
2022/01/03 01:52:23;;;;;;;10.45;2.17;;;;;;;14.51;56.47;101122.03;4948277;28;124286;-69
2022/01/03 01:54:58;;;;;;;10.45;2.63;;;;;;;14.51;56.53;101122.03;4929905;28;119460;-69
2022/01/03 01:57:49;;;;;;;;;;;;;;;14.49;56.67;101121.28;4948248;28;118132;-69
2022/01/03 02:00:22;;;;;;;11.07;2.33;;;;;;;14.52;56.64;101139.75;4950228;28;123335;-69
2022/01/03 02:03:37;;;;;;;12.95;2.33;;;;;;;14.51;56.50;101143.38;4936012;28;122399;-70
2022/01/03 02:06:21;;;;;;;12.52;2.50;;;;;;;14.49;56.55;101126.59;4930051;28;119359;-69
2022/01/03 02:09:04;;;;;;;14.65;2.67;;;;;;;14.48;56.52;101132.88;4930926;28;119141;-69
2022/01/03 02:11:57;;;;;;;10.23;2.40;;;;;;;14.46;56.43;101129.44;4930483;28;123681;-70
2022/01/03 02:14:37;;;;;;;14.45;2.67;;;;;;;14.46;56.37;101129.44;4930165;28;123514;-69
2022/01/03 02:17:08;;;;;;;12.32;2.70;;;;;;;14.45;56.31;101133.06;4947004;28;119959;-70
2022/01/03 02:19:40;;;;;;;10.60;2.10;;;;;;;14.45;56.36;101138.38;4946800;28;118601;-70
2022/01/03 02:22:10;;;;;;;12.73;2.30;;;;;;;14.44;56.41;101134.00;4928156;28;123300;-69
2022/01/03 02:24:45;;;;;;;15.95;2.33;;;;;;;14.41;56.38;101126.19;4930652;28;122881;-69
2022/01/03 02:27:13;;;;;;;12.35;2.65;;;;;;;14.41;56.26;101131.53;4944025;28;119581;-69
2022/01/03 02:29:43;;;;;;;14.23;2.00;;;;;;;14.38;56.27;101131.69;4946257;28;118247;-69
2022/01/03 02:32:16;;;;;;;6.93;1.85;;;;;;;14.36;56.19;101133.56;4945336;28;123614;-70
2022/01/03 02:34:44;;;;;;;9.98;2.05;;;;;;;14.34;56.32;101130.13;4946531;28;125086;-69
2022/01/03 02:37:11;;;;;;;7.93;2.40;;;;;;;14.32;56.22;101132.88;4948013;28;120394;-68
2022/01/03 02:39:39;;;;;;;11.50;2.17;;;;;;;14.30;56.18;101128.59;4947594;28;119245;-69
2022/01/03 02:42:06;;;;;;;14.05;3.20;;;;;;;14.28;56.34;101125.13;4943306;28;123426;-69
2022/01/03 02:44:33;;;;;;;9.65;2.30;;;;;;;14.27;56.17;101123.44;4945817;28;123491;-69
2022/01/03 02:47:01;;;;;;;12.75;2.40;;;;;;;14.25;56.32;101125.31;4948194;28;120420;-69
2022/01/03 02:49:28;;;;;;;12.80;2.85;;;;;;;14.23;56.40;101116.56;4946694;28;118828;-69
2022/01/03 02:51:55;;;;;;;12.07;2.40;;;;;;;14.19;56.34;101121.19;4947420;28;124043;-69
2022/01/03 02:54:23;;;;;;;10.57;2.38;;;;;;;14.18;56.50;101136.31;4946557;28;96815;-69
2022/01/03 02:56:51;;;;;;;7.82;2.10;;;;;;;14.16;56.44;101132.84;4936632;28;119506;-69
2022/01/03 02:59:19;;;;;;;16.65;2.75;;;;;;;14.15;56.50;101131.16;4943933;28;118948;-69
2022/01/03 03:01:47;;;;;;;12.27;2.70;;;;;;;14.14;56.54;101124.09;4927621;28;124100;-69
2022/01/03 03:04:16;;;;;;;12.02;2.22;;;;;;;14.12;56.55;101131.31;4935557;28;122498;-69
2022/01/03 03:06:43;;;;;;;9.35;2.17;;;;;;;14.12;56.56;101136.66;4951004;28;119961;-69
2022/01/03 03:09:12;;;;;;;10.68;2.42;;;;;;;14.12;56.56;101126.00;4950240;28;118687;-69
2022/01/03 03:11:40;;;;;;;10.70;2.45;;;;;;;14.12;56.53;101125.13;4933682;28;122782;-69
2022/01/03 03:14:08;;;;;;;14.02;2.35;;;;;;;14.10;56.56;101125.22;4949930;28;122958;-69
2022/01/03 03:16:35;;;;;;;11.80;2.10;;;;;;;14.08;56.55;101129.78;4950166;28;117824;-69
2022/01/03 03:19:03;;;;;;;14.18;2.25;;;;;;;14.07;56.56;101138.72;4950132;28;118467;-68
2022/01/03 03:21:30;;;;;;;12.77;2.42;;;;;;;14.06;56.50;101139.66;4937736;28;124131;-70
2022/01/03 03:23:58;;;;;;;12.77;2.10;;;;;;;14.04;56.55;101149.53;4949669;28;125412;-69
2022/01/03 03:26:26;;;;;;;10.25;2.13;;;;;;;14.02;56.34;101135.44;4936064;28;118455;-69
2022/01/03 03:28:54;;;;;;;10.65;2.15;;;;;;;14.02;56.75;101140.78;4947225;28;118412;-69
2022/01/03 03:31:22;;;;;;;12.60;2.40;;;;;;;14.01;56.57;101144.38;4945985;28;123426;-69
2022/01/03 03:33:49;;;;;;;13.25;2.35;;;;;;;14.00;56.70;101148.84;4945725;28;122088;-69
2022/01/03 03:36:17;;;;;;;10.90;2.38;;;;;;;14.00;56.76;101142.66;4945565;28;119520;-69
2022/01/03 03:38:44;;;;;;;12.23;2.17;;;;;;;13.99;56.70;101138.25;4929802;28;118402;-69
2022/01/03 03:41:15;;;;;;;18.30;2.67;;;;;;;13.98;56.57;101133.91;4932883;28;123939;-70
2022/01/03 03:43:52;;;;;;;12.35;2.63;;;;;;;13.96;56.59;101135.78;4945441;28;124572;-69
2022/01/03 03:46:19;;;;;;;10.30;2.63;;;;;;;13.93;56.75;101135.94;4945142;28;118762;-69
2022/01/03 03:48:47;;;;;;;11.82;2.45;;;;;;;13.92;56.61;101139.53;4927728;28;118461;-69
2022/01/03 03:51:19;;;;;;;12.60;2.60;;;;;;;13.90;56.86;101136.09;4929095;28;123563;-69
2022/01/03 03:53:49;;;;;;;12.85;2.85;;;;;;;13.89;56.83;101129.06;4926882;28;124673;-69
2022/01/03 03:56:19;;;;;;;14.75;2.80;;;;;;;13.88;56.78;101133.56;4945450;28;118433;-69
2022/01/03 03:58:47;;;;;;;14.85;3.03;;;;;;;13.88;56.75;101136.22;4942827;28;118291;-69
2022/01/03 04:01:14;;;;;;;13.20;2.70;;;;;;;13.89;57.02;101139.72;4928297;28;123727;-69
2022/01/03 04:03:47;;;;;;;11.98;2.75;;;;;;;13.90;56.82;101141.44;4942554;28;122686;-69
2022/01/03 04:06:17;;;;;;;17.90;2.78;;;;;;;13.92;56.86;101128.88;4929384;28;119578;-68
2022/01/03 04:08:47;;;;;;;11.60;2.15;;;;;;;13.92;56.88;101134.22;4942947;28;118280;-69
2022/01/03 04:11:14;;;;;;;11.75;2.40;;;;;;;13.93;56.99;101135.94;4945855;28;123902;-69
2022/01/03 04:13:42;;;;;;;15.52;2.55;;;;;;;13.93;56.98;101130.63;4936615;28;123414;-69
2022/01/03 04:16:10;;;;;;;9.52;2.40;;;;;;;13.95;56.89;101118.94;4946628;28;119555;-69
2022/01/03 04:18:37;;;;;;;10.07;2.50;;;;;;;13.96;56.82;101125.13;4945843;28;119260;-69
2022/01/03 04:21:04;;;;;;;13.75;2.55;;;;;;;13.98;56.94;101123.25;4944556;28;123294;-69
2022/01/03 04:23:32;;;;;;;15.18;3.00;;;;;;;13.98;56.83;101112.59;4928607;28;122487;-69
2022/01/03 04:25:59;;;;;;;11.18;2.10;;;;;;;14.00;57.00;101116.03;4944965;28;118920;-69
2022/01/03 04:28:26;;;;;;;13.15;2.60;;;;;;;14.03;56.89;101105.19;4943652;28;117318;-68
2022/01/03 04:30:53;;;;;;;14.25;2.58;;;;;;;14.04;57.00;101122.06;4943842;28;123966;-69
2022/01/03 04:33:20;;;;;;;16.05;2.95;;;;;;;14.04;56.96;101106.91;4944763;28;123226;-69
2022/01/03 04:35:50;;;;;;;13.70;2.72;;;;;;;14.05;56.90;101116.63;4926227;28;119606;-69
2022/01/03 04:38:18;;;;;;;14.75;2.30;;;;;;;14.05;56.96;101113.94;4928164;28;119334;-69
2022/01/03 04:40:46;;;;;;;14.55;2.58;;;;;;;14.05;57.01;101119.28;4944018;28;123809;-69
2022/01/03 04:43:13;;;;;;;11.32;2.33;;;;;;;14.06;56.85;101115.69;4945761;28;123718;-69
2022/01/03 04:45:40;;;;;;;12.60;2.53;;;;;;;14.05;57.00;101113.94;4944566;28;119404;-70
2022/01/03 04:48:07;;;;;;;13.13;2.95;;;;;;;14.05;56.86;101115.75;4944743;28;118319;-69
2022/01/03 04:50:34;;;;;;;12.48;2.50;;;;;;;14.04;57.01;101128.22;4945025;28;123314;-69
2022/01/03 04:53:01;;;;;;;14.43;2.60;;;;;;;14.04;56.87;101117.56;4928064;28;123719;-69
2022/01/03 04:55:29;;;;;;;17.10;2.75;;;;;;;14.04;56.86;101112.25;4946081;28;119548;-69
2022/01/03 04:57:56;;;;;;;13.80;2.67;;;;;;;14.04;56.97;101106.91;4936379;28;118490;-69
2022/01/03 05:00:23;;;;;;;10.68;2.38;;;;;;;14.05;56.96;101103.28;4943471;28;122941;-69
2022/01/03 05:02:50;;;;;;;13.13;2.47;;;;;;;14.06;56.93;101101.53;4936922;28;123337;-69
2022/01/03 05:05:19;;;;;;;10.45;2.60;;;;;;;14.06;56.88;101113.03;4928256;28;118620;-69
2022/01/03 05:07:46;;;;;;;16.25;2.78;;;;;;;14.06;57.01;101107.69;4943936;28;119010;-69
2022/01/03 05:10:14;;;;;;;16.23;2.63;;;;;;;14.07;56.86;101106.75;4944214;28;124651;-69
2022/01/03 05:12:41;;;;;;;12.95;2.63;;;;;;;14.07;56.97;101112.09;4927771;28;123403;-69
2022/01/03 05:15:09;;;;;;;12.13;2.67;;;;;;;14.09;56.93;101112.88;4927337;28;118023;-69
2022/01/03 05:17:36;;;;;;;15.90;2.95;;;;;;;14.10;56.90;101111.91;4911833;28;118704;-69
2022/01/03 05:20:04;;;;;;;11.68;2.75;;;;;;;14.11;56.84;101102.97;4943866;28;123860;-69
2022/01/03 05:22:32;;;;;;;15.63;2.75;;;;;;;14.12;56.82;101099.34;4944979;28;124242;-69
2022/01/03 05:24:59;;;;;;;13.82;2.53;;;;;;;14.11;56.84;101097.66;4943238;28;119800;-69
2022/01/03 05:27:26;;;;;;;16.23;2.40;;;;;;;14.10;56.88;101095.91;4945191;28;120828;-69
2022/01/03 05:29:54;;;;;;;13.90;2.58;;;;;;;14.09;56.89;101093.34;4946529;28;123299;-69
2022/01/03 05:32:22;;;;;;;13.63;2.20;;;;;;;14.08;56.80;101086.31;4948466;28;124170;-69
2022/01/03 05:34:49;;;;;;;14.43;2.42;;;;;;;14.07;56.87;101084.56;4928259;28;119491;-69
2022/01/03 05:37:16;;;;;;;14.23;2.67;;;;;;;14.05;56.77;101076.66;4947006;28;118195;-69
2022/01/03 05:39:44;;;;;;;14.55;2.60;;;;;;;14.04;56.68;101077.63;4946752;28;123054;-69
2022/01/03 05:42:11;;;;;;;12.80;2.25;;;;;;;14.04;56.80;101076.78;4943760;28;123163;-69
2022/01/03 05:44:38;;;;;;;12.73;2.47;;;;;;;14.04;56.69;101074.13;4945040;28;118483;-69
2022/01/03 05:47:06;;;;;;;15.13;3.08;;;;;;;14.04;56.70;101074.97;4946623;28;118370;-69
2022/01/03 05:49:34;;;;;;;16.67;2.90;;;;;;;14.03;56.77;101083.88;4946568;28;123580;-69
2022/01/03 05:52:02;;;;;;;14.57;2.17;;;;;;;14.02;56.97;101076.84;4940574;28;124259;-69
2022/01/03 05:54:29;;;;;;;12.60;2.33;;;;;;;14.01;56.97;101085.78;4927978;28;118757;-69
2022/01/03 05:56:59;;;;;;;13.63;2.22;;;;;;;14.01;56.93;101080.44;4930426;28;118170;-69
2022/01/03 05:59:27;;;;;;;10.98;2.28;;;;;;;14.02;57.05;101084.84;4946524;28;123276;-69
2022/01/03 06:01:55;;;;;;;18.38;2.40;;;;;;;14.04;56.98;101077.63;4937446;28;122802;-69
2022/01/03 06:04:24;;;;;;;14.80;3.08;;;;;;;14.05;57.07;101079.34;4948086;28;119565;-69
2022/01/03 06:07:08;;;;;;;13.40;2.40;;;;;;;14.04;56.79;101059.00;4947602;28;119028;-69
2022/01/03 06:09:46;;;;;;;15.55;2.22;;;;;;;14.06;57.02;101073.06;4946425;28;123846;-69
2022/01/03 06:12:13;;;;;;;15.88;2.60;;;;;;;14.07;57.02;101064.16;4945746;28;123427;-69
2022/01/03 06:14:47;;;;;;;15.85;2.30;;;;;;;14.08;57.01;101065.84;4929626;28;119422;-69
2022/01/03 06:17:16;;;;;;;15.25;2.83;;;;;;;14.11;56.94;101055.03;4941394;28;118927;-69
2022/01/03 06:19:47;;;;;;;19.20;2.38;;;;;;;14.11;56.93;101065.69;4946202;28;124337;-68
2022/01/03 06:22:14;;;;;;;12.45;2.08;;;;;;;14.12;56.89;101062.06;4947197;28;124023;-69
2022/01/03 06:24:45;;;;;;;16.92;2.50;;;;;;;14.13;56.98;101063.78;4929480;28;118186;-69
2022/01/03 06:27:14;;;;;;;13.32;2.05;;;;;;;14.13;56.90;101062.94;4946309;28;118518;-69
2022/01/03 06:29:42;;;;;;;10.25;1.95;;;;;;;14.14;56.89;101060.16;4944384;28;123551;-69
2022/01/03 06:32:09;;;;;;;12.52;2.22;;;;;;;14.14;56.86;101065.50;4927143;28;123932;-69
2022/01/03 06:34:36;;;;;;;12.77;2.05;;;;;;;14.15;56.83;101061.06;4945137;28;118620;-69
2022/01/03 06:37:03;;;;;;;8.40;2.08;;;;;;;14.15;56.92;101056.56;4944908;28;118377;-69
2022/01/03 06:39:37;;;;;;;10.75;2.20;;;;;;;14.17;56.92;101054.69;4927949;28;123451;-68
2022/01/03 06:42:07;;;;;;;13.65;2.33;;;;;;;14.18;56.87;101051.09;4944299;28;123920;-69
2022/01/03 06:44:34;;;;;;;9.75;1.83;;;;;;;14.19;56.87;101066.09;4929370;28;118330;-69
2022/01/03 06:47:02;;;;;;;10.93;1.88;;;;;;;14.17;56.85;101054.69;4938685;28;118289;-69
2022/01/03 06:49:29;;;;;;;16.90;2.67;;;;;;;14.20;56.77;101054.53;4946973;28;124228;-68
2022/01/03 06:51:56;;;;;;;15.25;1.92;;;;;;;14.19;56.90;101042.13;4927086;28;123941;-69
2022/01/03 06:54:25;;;;;;;10.48;2.17;;;;;;;14.18;56.77;101051.09;4945565;28;118660;-69
2022/01/03 06:56:56;;;;;;;12.18;1.92;;;;;;;14.17;56.80;101049.34;4930075;28;118006;-69
2022/01/03 06:59:29;;;;;;;11.13;1.88;;;;;;;14.18;56.71;101047.53;4926934;28;124107;-69
2022/01/03 07:01:57;;;;;;;9.45;1.60;;;;;;;14.18;56.66;101047.53;4945806;28;124041;-69
2022/01/03 07:04:24;;;;;;;9.20;1.80;;;;;;;14.17;56.80;101054.69;4945968;28;120160;-69
2022/01/03 07:06:51;;;;;;;11.40;2.22;;;;;;;14.17;56.83;101054.69;4947474;28;120587;-69
2022/01/03 07:09:18;;;;;;;8.40;2.10;;;;;;;14.16;56.86;101042.28;4945102;28;124512;-69
2022/01/03 07:11:46;;;;;;;11.38;2.00;;;;;;;14.18;56.90;101045.75;4945747;28;124657;-70
2022/01/03 07:19:48;;;;;;;11.93;2.47;;;;;;;14.12;56.89;101051.41;4945747;28;124466;-69
2022/01/03 07:22:15;;;;;;;10.85;2.08;;;;;;;14.11;56.76;101044.38;4945160;28;123529;-69
2022/01/03 07:24:42;;;;;;;6.07;1.55;;;;;;;14.11;56.84;101038.16;4947308;28;118118;-69
2022/01/03 07:27:12;;;;;;;8.82;2.10;;;;;;;14.08;56.85;101039.22;4946852;28;118739;-70
2022/01/03 07:29:40;;;;;;;10.95;1.95;;;;;;;14.05;56.77;101034.06;4946083;28;123751;-70
2022/01/03 07:32:07;;;;;;;10.43;1.90;;;;;;;14.01;56.82;101043.16;4947600;28;124599;-69
2022/01/03 07:34:35;;;;;;;9.82;1.73;;;;;;;13.97;56.94;101041.63;4947056;28;119845;-69
2022/01/03 07:37:02;;;;;;;10.77;2.08;;;;;;;13.93;56.92;101040.94;4946028;28;118925;-69
2022/01/03 07:39:31;;;;;;;10.80;2.00;;;;;;;13.90;57.04;101040.25;4946726;28;124253;-69
2022/01/03 07:41:58;;;;;;;8.65;2.25;;;;;;;13.86;57.16;101036.03;4945457;28;123512;-70
2022/01/03 07:44:26;;;;;;;8.82;1.90;;;;;;;13.85;57.29;101045.00;4946110;28;118790;-70
2022/01/03 07:46:56;;;;;;;8.40;1.65;;;;;;;13.83;57.36;101040.59;4945725;28;119112;-69
2022/01/03 07:49:24;;;;;;;11.50;2.08;;;;;;;13.81;57.50;101042.50;4946151;28;124051;-69
2022/01/03 07:51:51;;;;;;;8.95;2.05;;;;;;;13.80;57.59;101038.09;4947253;28;123943;-69
2022/01/03 07:54:18;;;;;;;8.65;1.70;;;;;;;13.79;57.53;101038.19;4947711;28;120136;-70
2022/01/03 07:56:46;;;;;;;8.00;1.50;;;;;;;13.77;57.51;101046.28;4948482;28;120563;-69
2022/01/03 07:59:13;;;;;;;10.93;1.80;;;;;;;13.75;57.55;101042.84;4948651;28;124111;-70
2022/01/03 08:01:44;;;;;;;9.20;1.80;;;;;;;13.73;57.42;101047.38;4946247;28;124104;-69
2022/01/03 08:04:12;;;;;;;10.45;1.65;;;;;;;13.71;57.44;101057.25;4948195;28;120346;-69
2022/01/03 08:06:46;;;;;;;9.18;1.90;;;;;;;13.69;57.55;101064.44;4947675;28;118865;-69
2022/01/03 08:09:13;;;;;;;12.75;2.08;;;;;;;13.67;57.76;101076.97;4947540;28;123826;-69
2022/01/03 08:11:40;;;;;;;12.90;1.90;;;;;;;13.66;57.72;101074.44;4948135;28;123556;-69
2022/01/03 08:14:07;;;;;;;10.48;1.70;;;;;;;13.64;57.63;101071.84;4948042;28;118957;-70
2022/01/03 08:16:34;;;;;;;7.45;1.52;;;;;;;13.64;57.78;101071.84;4947208;28;118792;-69
2022/01/03 08:19:02;;;;;;;8.85;1.70;;;;;;;13.63;57.75;101065.63;4947158;28;124010;-70
2022/01/03 08:21:29;;;;;;;8.77;1.60;;;;;;;13.63;57.71;101064.78;4947043;28;123605;-70
2022/01/03 08:23:57;;;;;;;14.38;1.98;;;;;;;13.63;57.90;101070.09;4947884;28;119224;-69
2022/01/03 08:26:24;;;;;;;11.77;2.03;;;;;;;13.63;57.73;101059.47;4948072;28;118050;-70
2022/01/03 08:28:51;;;;;;;12.00;1.90;;;;;;;13.61;57.82;101067.53;4947557;28;124512;-70
2022/01/03 08:31:18;;;;;;;7.88;1.55;;;;;;;13.60;57.81;101063.16;4924853;28;123330;-69
2022/01/03 08:33:45;;;;;;;8.98;1.50;;;;;;;13.61;58.04;101072.84;4947433;28;120018;-70
2022/01/03 08:36:13;;;;;;;13.13;2.10;;;;;;;13.62;58.08;101063.94;4948002;28;119890;-69
2022/01/03 08:38:40;;;;;;;10.70;2.20;;;;;;;13.63;58.19;101059.47;4947399;28;123961;-69
2022/01/03 08:41:07;;;;;;;10.50;2.05;;;;;;;13.65;57.96;101062.91;4930183;28;123777;-69
2022/01/03 08:43:34;;;;;;;7.40;1.65;;;;;;;13.68;58.11;101062.75;4946495;28;119926;-69
2022/01/03 08:46:02;;;;;;;9.82;1.90;;;;;;;13.70;57.93;101060.84;4946908;28;121218;-69
2022/01/03 08:48:29;;;;;;;8.50;1.80;;;;;;;13.71;58.01;101070.56;4947076;28;124146;-69
2022/01/03 08:50:57;;;;;;;9.45;2.05;;;;;;;13.72;58.01;101058.97;4947150;28;123750;-69
2022/01/03 08:53:27;;;;;;;10.85;2.10;;;;;;;13.76;57.91;101054.34;4947162;28;119593;-70
2022/01/03 08:55:55;;;;;;;10.10;2.20;;;;;;;13.79;57.95;101057.69;4946895;28;119250;-69
2022/01/03 08:58:24;;;;;;;9.93;2.35;;;;;;;13.81;58.00;101058.47;4946942;28;124001;-69
2022/01/03 09:00:51;;;;;;;13.93;2.30;;;;;;;13.83;58.08;101056.56;4947001;28;123209;-69
2022/01/03 09:03:19;;;;;;;10.70;1.80;;;;;;;13.87;57.87;101067.06;4946933;28;118903;-69
2022/01/03 09:05:47;;;;;;;15.90;2.40;;;;;;;13.89;57.94;101065.16;4951155;28;119940;-69
2022/01/03 09:08:15;;;;;;;17.63;2.58;;;;;;;13.89;57.90;101062.50;4950381;28;123089;-70
2022/01/03 09:10:43;;;;;;;9.35;2.03;;;;;;;13.91;57.99;101079.25;4933008;28;123632;-69
2022/01/03 09:13:11;;;;;;;13.45;2.10;;;;;;;13.93;57.99;101072.03;4950350;28;118936;-70
2022/01/03 09:15:44;;;;;;;14.02;2.30;;;;;;;13.94;57.98;101073.78;4950207;28;118680;-70
2022/01/03 09:18:12;;;;;;;14.65;2.42;;;;;;;13.98;57.97;101062.00;4946858;28;124032;-70
2022/01/03 09:20:39;;;;;;;13.13;2.03;;;;;;;14.01;57.81;101053.81;4949055;28;123704;-70
2022/01/03 09:23:12;;;;;;;11.02;2.08;;;;;;;14.03;57.86;101046.59;4949729;28;119152;-69
2022/01/03 09:30:55;;;;;;;7.50;1.80;;;;;;;14.09;57.88;101040.94;4947953;28;122886;-70
2022/01/03 09:33:22;;;;;;;11.90;2.40;;;;;;;14.11;57.68;101039.06;4950009;28;120704;-69
2022/01/03 09:35:51;;;;;;;10.20;2.20;;;;;;;14.13;57.76;101047.81;4949982;28;119739;-69
2022/01/03 09:38:19;;;;;;;10.52;2.13;;;;;;;14.14;57.70;101049.50;4949049;28;123382;-70
2022/01/03 09:40:47;;;;;;;12.35;1.90;;;;;;;14.16;57.71;101042.28;4949225;28;123706;-70
2022/01/03 09:43:17;;;;;;;14.85;2.25;;;;;;;14.19;57.71;101026.16;4947252;28;119632;-70
2022/01/03 09:45:47;;;;;;;13.65;2.38;;;;;;;14.23;57.76;101036.63;4946662;28;119018;-69
2022/01/03 09:48:15;;;;;;;13.65;2.58;;;;;;;14.25;57.73;101032.94;4947207;28;123234;-69
2022/01/03 09:50:43;;;;;;;8.13;1.77;;;;;;;14.28;57.71;101031.88;4949145;28;123667;-69
2022/01/03 09:53:11;;;;;;;10.68;2.45;;;;;;;14.30;57.75;101016.69;4948695;28;119202;-69
2022/01/03 09:55:39;;;;;;;8.30;2.00;;;;;;;14.34;57.66;101012.91;4948998;28;118742;-70
2022/01/03 09:58:07;;;;;;;8.88;2.10;;;;;;;14.37;57.59;101010.03;4949486;28;124036;-70
2022/01/03 10:00:34;;;;;;;11.63;2.10;;;;;;;14.39;57.64;101022.34;4950361;28;124773;-69
2022/01/03 10:03:02;;;;;;;11.90;1.90;;;;;;;14.43;57.52;101023.03;4948033;28;119319;-69
2022/01/03 10:05:29;;;;;;;11.68;2.10;;;;;;;14.48;57.44;101018.25;4949028;28;119027;-69
2022/01/03 10:07:57;;;;;;;12.15;2.70;;;;;;;14.52;57.59;101006.50;4949329;28;124308;-69
2022/01/03 10:10:27;;;;;;;11.23;2.10;;;;;;;14.57;57.40;101020.41;4945640;28;123701;-69
2022/01/03 10:12:54;;;;;;;13.27;2.22;;;;;;;14.62;57.45;101011.28;4947707;28;119191;-69
2022/01/03 10:15:22;;;;;;;11.00;2.00;;;;;;;14.68;57.31;101018.94;4949155;28;119076;-69
2022/01/03 10:17:49;;;;;;;12.68;1.80;;;;;;;14.71;57.34;101011.63;4949786;28;124372;-70
2022/01/03 10:20:17;;;;;;;10.68;2.20;;;;;;;14.76;57.37;101008.66;4948450;28;123586;-69
2022/01/03 10:22:44;;;;;;;15.43;2.17;;;;;;;14.80;57.21;101004.88;4945535;28;120910;-70
2022/01/03 10:25:14;;;;;;;13.43;2.10;;;;;;;14.84;57.17;101006.38;4948512;28;119746;-70
2022/01/03 10:27:56;;;;;;;11.63;1.85;;;;;;;14.87;57.16;101000.88;4947420;28;124288;-70
2022/01/03 10:30:45;;;;;;;16.38;2.70;;;;;;;14.90;57.11;101002.50;4947306;28;123365;-70
2022/01/03 10:33:15;;;;;;;13.57;1.95;;;;;;;14.92;57.04;100993.47;4941610;28;119068;-70
2022/01/03 10:35:45;;;;;;;12.43;2.33;;;;;;;14.91;56.85;101007.75;4931457;28;117949;-71
2022/01/03 10:38:31;;;;;;;11.00;2.10;;;;;;;14.90;56.72;101019.38;4948290;28;124763;-71
2022/01/03 10:41:16;;;;;;;10.88;2.53;;;;;;;14.90;56.83;101016.72;4947279;28;122990;-70
2022/01/03 10:43:46;;;;;;;13.75;2.95;;;;;;;14.90;56.72;101014.03;4931819;28;119100;-70
2022/01/03 10:46:23;;;;;;;10.63;2.63;;;;;;;14.89;56.56;101003.47;4949302;28;118098;-70
2022/01/03 10:48:53;;;;;;;11.30;2.70;;;;;;;14.90;56.76;101014.03;4930623;28;124149;-69
2022/01/03 10:51:26;;;;;;;12.63;2.00;;;;;;;14.90;56.85;101000.72;4948128;28;124656;-69
2022/01/03 10:53:55;;;;;;;10.50;2.10;;;;;;;14.92;56.60;101004.13;4947921;28;119205;-70
2022/01/03 10:56:38;;;;;;;12.43;2.22;;;;;;;14.92;56.79;100998.81;4949721;28;118723;-70
2022/01/03 10:59:11;;;;;;;9.90;2.20;;;;;;;14.92;56.60;100988.13;4948366;28;124150;-70
2022/01/03 11:01:39;;;;;;;10.25;2.00;;;;;;;14.91;56.62;100983.75;4948331;28;123710;-70
2022/01/03 11:04:07;;;;;;;12.10;2.05;;;;;;;14.91;56.65;100986.41;4948658;28;119379;-70
2022/01/03 11:11:49;;;;;;;12.32;2.47;;;;;;;14.90;56.48;100979.38;4947621;28;123574;-70
2022/01/03 11:14:32;;;;;;;12.02;1.85;;;;;;;14.89;56.49;100976.78;4946455;28;119092;-69
2022/01/03 11:17:03;;;;;;;11.48;2.22;;;;;;;14.90;56.61;100955.38;4947305;28;119058;-70
2022/01/03 11:19:38;;;;;;;11.73;2.03;;;;;;;14.89;56.49;100950.97;4948483;28;126459;-70
2022/01/03 11:22:06;;;;;;;9.40;1.97;;;;;;;14.89;56.37;100956.31;4947273;28;123820;-70
2022/01/03 11:24:45;;;;;;;10.48;2.38;;;;;;;14.89;56.37;100961.63;4948240;28;119278;-71
2022/01/03 11:27:13;;;;;;;12.25;2.20;;;;;;;14.89;56.45;100953.66;4945797;28;119746;-71
2022/01/03 11:29:42;;;;;;;13.55;1.95;;;;;;;14.88;56.32;100951.94;4947100;28;124541;-71
2022/01/03 11:32:10;;;;;;;8.02;1.85;;;;;;;14.88;56.47;100951.94;4947238;28;123842;-71
2022/01/03 11:34:41;;;;;;;8.27;2.17;;;;;;;14.88;56.33;100943.06;4948255;28;119093;-71
2022/01/03 11:37:09;;;;;;;11.68;2.05;;;;;;;14.89;56.29;100945.66;4947064;28;119269;-71
2022/01/03 11:39:36;;;;;;;10.13;1.83;;;;;;;14.87;56.39;100941.38;4947704;28;124195;-71
2022/01/03 11:42:04;;;;;;;9.98;1.65;;;;;;;14.87;56.30;100947.53;4948462;28;124166;-71